createdAt,value
2018-06-20T00:00:21.189Z,978.01
2018-06-20T00:01:21.187Z,978.02
2018-06-20T00:02:21.190Z,978.02
2018-06-20T00:03:21.193Z,978.01
2018-06-20T00:04:21.181Z,978.01
2018-06-20T00:05:21.187Z,978.01
2018-06-20T00:06:21.178Z,977.98
2018-06-20T00:07:21.215Z,977.97
2018-06-20T00:08:21.179Z,977.98
2018-06-20T00:09:21.183Z,977.96
2018-06-20T00:10:21.174Z,977.95
2018-06-20T00:11:21.167Z,977.93
2018-06-20T00:12:21.170Z,977.97
2018-06-20T00:13:21.164Z,977.99
2018-06-20T00:14:21.169Z,978.03
2018-06-20T00:15:21.162Z,977.99
2018-06-20T00:16:21.174Z,978.00
2018-06-20T00:17:21.160Z,977.97
2018-06-20T00:18:21.155Z,977.96
2018-06-20T00:19:21.155Z,977.94
2018-06-20T00:20:21.149Z,977.91
2018-06-20T00:21:21.151Z,977.94
2018-06-20T00:22:21.145Z,977.94
2018-06-20T00:23:21.142Z,977.97
2018-06-20T00:24:21.151Z,977.94
2018-06-20T00:25:21.146Z,977.91
2018-06-20T00:26:21.148Z,977.91
2018-06-20T00:27:21.137Z,977.89
2018-06-20T00:28:21.134Z,977.86
2018-06-20T00:29:21.133Z,977.89
2018-06-20T00:30:21.131Z,977.88
2018-06-20T00:31:21.134Z,977.86
2018-06-20T00:32:21.127Z,977.88
2018-06-20T00:33:21.125Z,977.85
2018-06-20T00:34:21.131Z,977.84
2018-06-20T00:35:21.121Z,977.83
2018-06-20T00:36:21.119Z,977.81
2018-06-20T00:37:21.118Z,977.80
2018-06-20T00:38:21.117Z,977.79
2018-06-20T00:39:21.119Z,977.80
2018-06-20T00:40:21.114Z,977.80
2018-06-20T00:41:21.116Z,977.77
2018-06-20T00:42:21.109Z,977.80
2018-06-20T00:43:21.109Z,977.75
2018-06-20T00:44:21.110Z,977.77
2018-06-20T00:45:21.103Z,977.75
2018-06-20T00:46:21.105Z,977.71
2018-06-20T00:47:21.116Z,977.72
2018-06-20T00:48:21.096Z,977.70
2018-06-20T00:49:21.103Z,977.73
2018-06-20T00:50:21.092Z,977.73
2018-06-20T00:51:21.097Z,977.73
2018-06-20T00:52:21.099Z,977.72
2018-06-20T00:53:21.089Z,977.74
2018-06-20T00:54:21.085Z,977.71
2018-06-20T00:55:21.089Z,977.70
2018-06-20T00:56:21.083Z,977.66
2018-06-20T00:57:21.079Z,977.71
2018-06-20T00:58:21.082Z,977.68
2018-06-20T00:59:21.080Z,977.72
2018-06-20T01:00:21.087Z,977.68
2018-06-20T01:01:21.080Z,977.70
2018-06-20T01:02:21.088Z,977.66
2018-06-20T01:03:21.072Z,977.70
2018-06-20T01:04:21.066Z,977.67
2018-06-20T01:05:21.064Z,977.70
2018-06-20T01:06:21.076Z,977.76
2018-06-20T01:07:21.068Z,977.78
2018-06-20T01:08:21.057Z,977.76
2018-06-20T01:09:21.059Z,977.72
2018-06-20T01:10:21.060Z,977.80
2018-06-20T01:11:21.055Z,977.77
2018-06-20T01:12:21.051Z,977.82
2018-06-20T01:13:21.054Z,977.83
2018-06-20T01:14:21.054Z,977.84
2018-06-20T01:15:21.043Z,977.80
2018-06-20T01:16:21.049Z,977.80
2018-06-20T01:17:21.052Z,977.82
2018-06-20T01:18:21.043Z,977.84
2018-06-20T01:19:21.037Z,977.83
2018-06-20T01:20:21.039Z,977.83
2018-06-20T01:21:21.032Z,977.86
2018-06-20T01:22:21.029Z,977.82
2018-06-20T01:23:21.030Z,977.84
2018-06-20T01:24:21.027Z,977.85
2018-06-20T01:25:21.025Z,977.83
2018-06-20T01:26:21.026Z,977.78
2018-06-20T01:27:21.021Z,977.80
2018-06-20T01:28:21.029Z,977.81
2018-06-20T01:29:21.028Z,977.79
2018-06-20T01:30:21.017Z,977.81
2018-06-20T01:31:21.019Z,977.79
2018-06-20T01:32:21.022Z,977.78
2018-06-20T01:33:21.006Z,977.74
2018-06-20T01:34:21.007Z,977.76
2018-06-20T01:35:21.002Z,977.75
2018-06-20T01:36:21.000Z,977.76
2018-06-20T01:37:21.016Z,977.72
2018-06-20T01:38:20.995Z,977.71
2018-06-20T01:39:21.001Z,977.66
2018-06-20T01:40:20.995Z,977.67
2018-06-20T01:41:20.997Z,977.66
2018-06-20T01:42:21.000Z,977.65
2018-06-20T01:43:20.994Z,977.67
2018-06-20T01:44:20.980Z,977.64
2018-06-20T01:45:20.978Z,977.64
2018-06-20T01:46:20.977Z,977.67
2018-06-20T01:47:20.986Z,977.66
2018-06-20T01:48:20.974Z,977.64
2018-06-20T01:49:20.967Z,977.63
2018-06-20T01:50:20.966Z,977.64
2018-06-20T01:51:20.967Z,977.69
2018-06-20T01:52:20.964Z,977.66
2018-06-20T01:53:20.960Z,977.69
2018-06-20T01:54:20.958Z,977.64
2018-06-20T01:55:20.963Z,977.63
2018-06-20T01:56:20.961Z,977.66
2018-06-20T01:57:21.031Z,977.60
2018-06-20T01:58:20.956Z,977.62
2018-06-20T01:59:20.946Z,977.62
2018-06-20T02:00:20.945Z,977.60
2018-06-20T02:01:20.948Z,977.60
2018-06-20T02:02:20.937Z,977.60
2018-06-20T02:03:20.942Z,977.60
2018-06-20T02:04:20.941Z,977.64
2018-06-20T02:05:20.932Z,977.62
2018-06-20T02:06:20.929Z,977.60
2018-06-20T02:07:21.000Z,977.59
2018-06-20T02:08:20.932Z,977.61
2018-06-20T02:09:20.928Z,977.60
2018-06-20T02:10:20.919Z,977.62
2018-06-20T02:11:20.920Z,977.61
2018-06-20T02:12:20.916Z,977.61
2018-06-20T02:13:20.913Z,977.57
2018-06-20T02:14:20.911Z,977.55
2018-06-20T02:15:20.916Z,977.60
2018-06-20T02:16:20.905Z,977.57
2018-06-20T02:17:20.903Z,977.58
2018-06-20T02:18:20.900Z,977.56
2018-06-20T02:19:20.908Z,977.56
2018-06-20T02:20:20.989Z,977.57
2018-06-20T02:21:20.902Z,977.56
2018-06-20T02:22:20.897Z,977.61
2018-06-20T02:23:20.897Z,977.60
2018-06-20T02:24:20.899Z,977.57
2018-06-20T02:25:20.884Z,977.57
2018-06-20T02:26:20.879Z,977.56
2018-06-20T02:27:20.881Z,977.59
2018-06-20T02:28:20.877Z,977.55
2018-06-20T02:29:20.885Z,977.54
2018-06-20T02:30:20.870Z,977.51
2018-06-20T02:31:20.877Z,977.54
2018-06-20T02:32:20.867Z,977.50
2018-06-20T02:33:20.873Z,977.46
2018-06-20T02:34:20.859Z,977.49
2018-06-20T02:35:20.859Z,977.46
2018-06-20T02:36:20.856Z,977.49
2018-06-20T02:37:20.924Z,977.52
2018-06-20T02:38:20.854Z,977.49
2018-06-20T02:39:20.855Z,977.46
2018-06-20T02:40:20.925Z,977.43
2018-06-20T02:41:20.846Z,977.44
2018-06-20T02:42:20.839Z,977.45
2018-06-20T02:43:20.835Z,977.48
2018-06-20T02:44:20.830Z,977.47
2018-06-20T02:45:20.830Z,977.50
2018-06-20T02:46:20.834Z,977.50
2018-06-20T02:47:20.822Z,977.53
2018-06-20T02:48:20.826Z,977.51
2018-06-20T02:49:20.817Z,977.51
2018-06-20T02:50:20.894Z,977.55
2018-06-20T02:51:20.820Z,977.49
2018-06-20T02:52:20.813Z,977.51
2018-06-20T02:53:20.812Z,977.48
2018-06-20T02:54:20.801Z,977.45
2018-06-20T02:55:20.798Z,977.46
2018-06-20T02:56:20.793Z,977.49
2018-06-20T02:57:20.803Z,977.49
2018-06-20T02:58:20.790Z,977.48
2018-06-20T02:59:20.788Z,977.42
2018-06-20T03:00:20.919Z,977.42
2018-06-20T03:01:20.777Z,977.46
2018-06-20T03:02:20.784Z,977.48
2018-06-20T03:03:20.772Z,977.49
2018-06-20T03:04:20.770Z,977.45
2018-06-20T03:05:20.763Z,977.48
2018-06-20T03:06:20.760Z,977.49
2018-06-20T03:07:20.774Z,977.47
2018-06-20T03:08:20.770Z,977.49
2018-06-20T03:09:20.762Z,977.51
2018-06-20T03:10:20.829Z,977.54
2018-06-20T03:11:20.746Z,977.52
2018-06-20T03:12:20.747Z,977.51
2018-06-20T03:13:20.750Z,977.59
2018-06-20T03:14:20.737Z,977.55
2018-06-20T03:15:20.739Z,977.54
2018-06-20T03:16:20.729Z,977.59
2018-06-20T03:17:20.725Z,977.56
2018-06-20T03:18:20.722Z,977.60
2018-06-20T03:19:20.731Z,977.55
2018-06-20T03:20:20.715Z,977.53
2018-06-20T03:21:20.711Z,977.58
2018-06-20T03:22:20.720Z,977.59
2018-06-20T03:23:20.703Z,977.61
2018-06-20T03:24:20.699Z,977.61
2018-06-20T03:25:20.707Z,977.64
2018-06-20T03:26:20.692Z,977.65
2018-06-20T03:27:20.731Z,977.65
2018-06-20T03:28:20.687Z,977.65
2018-06-20T03:29:20.695Z,977.65
2018-06-20T03:30:20.683Z,977.65
2018-06-20T03:31:20.676Z,977.64
2018-06-20T03:32:20.673Z,977.64
2018-06-20T03:33:20.673Z,977.61
2018-06-20T03:34:20.671Z,977.64
2018-06-20T03:35:20.669Z,977.62
2018-06-20T03:36:20.672Z,977.66
2018-06-20T03:37:20.660Z,977.66
2018-06-20T03:38:20.664Z,977.63
2018-06-20T03:39:20.649Z,977.65
2018-06-20T03:40:20.643Z,977.65
2018-06-20T03:41:20.657Z,977.66
2018-06-20T03:42:20.645Z,977.65
2018-06-20T03:43:20.637Z,977.68
2018-06-20T03:44:20.684Z,977.70
2018-06-20T03:45:20.633Z,977.68
2018-06-20T03:46:20.628Z,977.70
2018-06-20T03:47:20.677Z,977.74
2018-06-20T03:48:20.616Z,977.69
2018-06-20T03:49:20.617Z,977.66
2018-06-20T03:50:20.619Z,977.68
2018-06-20T03:51:20.638Z,977.68
2018-06-20T03:52:20.604Z,977.71
2018-06-20T03:53:20.608Z,977.69
2018-06-20T03:54:20.596Z,977.69
2018-06-20T03:55:20.594Z,977.72
2018-06-20T03:56:20.602Z,977.71
2018-06-20T03:57:20.651Z,977.73
2018-06-20T03:58:20.583Z,977.77
2018-06-20T03:59:20.593Z,977.75
2018-06-20T04:00:20.581Z,977.75
2018-06-20T04:01:20.575Z,977.75
2018-06-20T04:02:20.584Z,977.77
2018-06-20T04:03:20.568Z,977.78
2018-06-20T04:04:20.561Z,977.80
2018-06-20T04:05:20.559Z,977.80
2018-06-20T04:06:20.553Z,977.83
2018-06-20T04:07:20.610Z,977.82
2018-06-20T04:08:20.546Z,977.80
2018-06-20T04:09:20.548Z,977.76
2018-06-20T04:10:20.553Z,977.78
2018-06-20T04:11:20.534Z,977.80
2018-06-20T04:12:20.546Z,977.78
2018-06-20T04:13:20.535Z,977.77
2018-06-20T04:14:20.533Z,977.79
2018-06-20T04:15:20.531Z,977.80
2018-06-20T04:16:20.525Z,977.77
2018-06-20T04:17:20.582Z,977.74
2018-06-20T04:18:20.524Z,977.82
2018-06-20T04:19:20.516Z,977.85
2018-06-20T04:20:20.509Z,977.86
2018-06-20T04:21:20.507Z,977.89
2018-06-20T04:22:20.500Z,977.90
2018-06-20T04:23:20.494Z,977.93
2018-06-20T04:24:20.549Z,977.95
2018-06-20T04:25:20.495Z,977.94
2018-06-20T04:26:20.487Z,977.90
2018-06-20T04:27:20.549Z,977.93
2018-06-20T04:28:20.486Z,977.92
2018-06-20T04:29:20.486Z,977.94
2018-06-20T04:30:20.492Z,977.96
2018-06-20T04:31:20.501Z,977.95
2018-06-20T04:32:20.484Z,977.95
2018-06-20T04:33:20.482Z,977.97
2018-06-20T04:34:20.487Z,977.98
2018-06-20T04:35:20.487Z,977.95
2018-06-20T04:36:20.487Z,978.00
2018-06-20T04:37:20.495Z,977.96
2018-06-20T04:38:20.491Z,977.97
2018-06-20T04:39:20.500Z,977.99
2018-06-20T04:40:20.538Z,978.03
2018-06-20T04:41:20.511Z,978.02
2018-06-20T04:42:20.505Z,978.00
2018-06-20T04:43:20.558Z,978.03
2018-06-20T04:44:20.510Z,977.98
2018-06-20T04:45:20.518Z,978.00
2018-06-20T04:46:20.519Z,978.03
2018-06-20T04:47:20.523Z,978.02
2018-06-20T04:48:20.527Z,977.99
2018-06-20T04:49:20.533Z,977.99
2018-06-20T04:50:20.549Z,978.00
2018-06-20T04:51:20.554Z,977.98
2018-06-20T04:52:20.558Z,977.98
2018-06-20T04:53:20.555Z,978.01
2018-06-20T04:54:20.560Z,978.04
2018-06-20T04:55:20.572Z,978.01
2018-06-20T04:56:20.579Z,978.00
2018-06-20T04:57:20.583Z,977.97
2018-06-20T04:58:20.589Z,977.98
2018-06-20T04:59:20.599Z,978.01
2018-06-20T05:00:20.615Z,977.98
2018-06-20T05:01:20.618Z,977.99
2018-06-20T05:02:20.621Z,978.00
2018-06-20T05:03:20.635Z,977.99
2018-06-20T05:04:20.637Z,978.01
2018-06-20T05:05:20.699Z,977.97
2018-06-20T05:06:20.657Z,977.96
2018-06-20T05:07:20.662Z,977.94
2018-06-20T05:08:20.680Z,977.93
2018-06-20T05:09:20.678Z,977.94
2018-06-20T05:10:20.693Z,977.90
2018-06-20T05:11:20.695Z,977.89
2018-06-20T05:12:20.701Z,977.90
2018-06-20T05:13:20.719Z,977.89
2018-06-20T05:14:20.729Z,977.90
2018-06-20T05:15:20.737Z,977.88
2018-06-20T05:16:20.740Z,977.80
2018-06-20T05:17:20.758Z,977.86
2018-06-20T05:18:20.752Z,977.82
2018-06-20T05:19:20.761Z,977.84
2018-06-20T05:20:20.765Z,977.83
2018-06-20T05:21:20.773Z,977.88
2018-06-20T05:22:20.782Z,977.88
2018-06-20T05:23:20.787Z,977.91
2018-06-20T05:24:20.795Z,977.88
2018-06-20T05:25:20.808Z,977.92
2018-06-20T05:26:20.814Z,977.81
2018-06-20T05:27:20.826Z,977.85
2018-06-20T05:28:20.818Z,977.85
2018-06-20T05:29:20.824Z,977.79
2018-06-20T05:30:20.837Z,977.82
2018-06-20T05:31:20.842Z,977.84
2018-06-20T05:32:20.847Z,977.77
2018-06-20T05:33:20.857Z,977.83
2018-06-20T05:34:20.852Z,977.79
2018-06-20T05:35:20.854Z,977.80
2018-06-20T05:36:20.856Z,977.82
2018-06-20T05:37:20.865Z,977.86
2018-06-20T05:38:20.865Z,977.87
2018-06-20T05:39:20.872Z,977.87
2018-06-20T05:40:20.878Z,977.83
2018-06-20T05:41:20.876Z,977.89
2018-06-20T05:42:20.879Z,977.82
2018-06-20T05:43:20.891Z,977.79
2018-06-20T05:44:20.891Z,977.78
2018-06-20T05:45:20.891Z,977.80
2018-06-20T05:46:20.895Z,977.81
2018-06-20T05:47:20.897Z,977.83
2018-06-20T05:48:20.902Z,977.77
2018-06-20T05:49:20.897Z,977.82
2018-06-20T05:50:20.913Z,977.80
2018-06-20T05:51:20.908Z,977.78
2018-06-20T05:52:20.904Z,977.81
2018-06-20T05:53:20.910Z,977.81
2018-06-20T05:54:20.912Z,977.79
2018-06-20T05:55:20.922Z,977.73
2018-06-20T05:56:20.928Z,977.76
2018-06-20T05:57:20.928Z,977.79
2018-06-20T05:58:20.920Z,977.80
2018-06-20T05:59:20.925Z,977.80
2018-06-20T06:00:20.922Z,977.79
2018-06-20T06:01:20.925Z,977.77
2018-06-20T06:02:20.930Z,977.74
2018-06-20T06:03:20.929Z,977.79
2018-06-20T06:04:20.932Z,977.79
2018-06-20T06:05:20.942Z,977.78
2018-06-20T06:06:20.938Z,977.77
2018-06-20T06:07:20.933Z,977.81
2018-06-20T06:08:20.948Z,977.80
2018-06-20T06:09:20.936Z,977.75
2018-06-20T06:10:20.942Z,977.77
2018-06-20T06:11:20.945Z,977.79
2018-06-20T06:12:20.940Z,977.77
2018-06-20T06:13:20.942Z,977.77
2018-06-20T06:14:20.954Z,977.83
2018-06-20T06:15:20.945Z,977.76
2018-06-20T06:16:20.946Z,977.75
2018-06-20T06:17:20.958Z,977.78
2018-06-20T06:18:20.949Z,977.73
2018-06-20T06:19:20.976Z,977.72
2018-06-20T06:20:20.962Z,977.73
2018-06-20T06:21:20.959Z,977.68
2018-06-20T06:22:20.959Z,977.70
2018-06-20T06:23:21.017Z,977.70
2018-06-20T06:24:20.957Z,977.71
2018-06-20T06:25:20.968Z,977.69
2018-06-20T06:26:20.971Z,977.71
2018-06-20T06:27:20.962Z,977.73
2018-06-20T06:28:20.964Z,977.73
2018-06-20T06:29:20.966Z,977.73
2018-06-20T06:30:21.057Z,977.75
2018-06-20T06:31:20.970Z,977.74
2018-06-20T06:32:20.982Z,977.70
2018-06-20T06:33:20.970Z,977.69
2018-06-20T06:34:20.974Z,977.70
2018-06-20T06:35:20.978Z,977.67
2018-06-20T06:36:20.976Z,977.63
2018-06-20T06:37:20.982Z,977.61
2018-06-20T06:38:20.980Z,977.65
2018-06-20T06:39:20.980Z,977.62
2018-06-20T06:40:20.981Z,977.60
2018-06-20T06:41:20.984Z,977.64
2018-06-20T06:42:20.989Z,977.58
2018-06-20T06:43:20.993Z,977.59
2018-06-20T06:44:20.999Z,977.60
2018-06-20T06:45:20.992Z,977.62
2018-06-20T06:46:21.002Z,977.64
2018-06-20T06:47:21.009Z,977.60
2018-06-20T06:48:21.000Z,977.65
2018-06-20T06:49:21.001Z,977.63
2018-06-20T06:50:21.012Z,977.63
2018-06-20T06:51:21.009Z,977.64
2018-06-20T06:52:21.010Z,977.58
2018-06-20T06:53:21.007Z,977.63
2018-06-20T06:54:21.008Z,977.66
2018-06-20T06:55:21.009Z,977.68
2018-06-20T06:56:21.008Z,977.62
2018-06-20T06:57:21.014Z,977.62
2018-06-20T06:58:21.012Z,977.65
2018-06-20T06:59:21.023Z,977.58
2018-06-20T07:00:21.027Z,977.58
2018-06-20T07:01:21.020Z,977.62
2018-06-20T07:02:21.019Z,977.61
2018-06-20T07:03:21.024Z,977.61
2018-06-20T07:04:21.025Z,977.54
2018-06-20T07:05:21.024Z,977.57
2018-06-20T07:06:21.032Z,977.59
2018-06-20T07:07:21.029Z,977.58
2018-06-20T07:08:21.027Z,977.62
2018-06-20T07:09:21.099Z,977.59
2018-06-20T07:10:21.033Z,977.59
2018-06-20T07:11:21.044Z,977.57
2018-06-20T07:12:21.036Z,977.61
2018-06-20T07:13:21.047Z,977.59
2018-06-20T07:14:21.042Z,977.58
2018-06-20T07:15:21.079Z,977.63
2018-06-20T07:16:21.042Z,977.61
2018-06-20T07:17:21.052Z,977.63
2018-06-20T07:18:21.057Z,977.61
2018-06-20T07:19:21.049Z,977.60
2018-06-20T07:20:21.050Z,977.60
2018-06-20T07:21:21.051Z,977.59
2018-06-20T07:22:21.061Z,977.56
2018-06-20T07:23:21.066Z,977.54
2018-06-20T07:24:21.157Z,977.54
2018-06-20T07:25:21.074Z,977.52
2018-06-20T07:26:21.072Z,977.53
2018-06-20T07:27:21.069Z,977.55
2018-06-20T07:28:21.074Z,977.53
2018-06-20T07:29:21.107Z,977.53
2018-06-20T07:30:21.078Z,977.54
2018-06-20T07:31:21.074Z,977.57
2018-06-20T07:32:21.082Z,977.56
2018-06-20T07:33:21.079Z,977.56
2018-06-20T07:34:21.137Z,977.55
2018-06-20T07:35:21.108Z,977.55
2018-06-20T07:36:21.115Z,977.55
2018-06-20T07:37:21.095Z,977.54
2018-06-20T07:38:21.100Z,977.49
2018-06-20T07:39:21.105Z,977.51
2018-06-20T07:40:21.101Z,977.50
2018-06-20T07:41:21.098Z,977.52
2018-06-20T07:42:21.098Z,977.51
2018-06-20T07:43:21.111Z,977.55
2018-06-20T07:44:21.110Z,977.53
2018-06-20T07:45:21.112Z,977.52
2018-06-20T07:46:21.111Z,977.49
2018-06-20T07:47:21.114Z,977.51
2018-06-20T07:48:21.113Z,977.48
2018-06-20T07:49:21.115Z,977.50
2018-06-20T07:50:21.116Z,977.48
2018-06-20T07:51:21.122Z,977.46
2018-06-20T07:52:21.135Z,977.41
2018-06-20T07:53:21.128Z,977.43
2018-06-20T07:54:21.129Z,977.40
2018-06-20T07:55:21.128Z,977.46
2018-06-20T07:56:21.135Z,977.42
2018-06-20T07:57:21.135Z,977.38
2018-06-20T07:58:21.140Z,977.36
2018-06-20T07:59:21.136Z,977.38
2018-06-20T08:00:21.142Z,977.37
2018-06-20T08:01:21.158Z,977.36
2018-06-20T08:02:21.156Z,977.38
2018-06-20T08:03:21.146Z,977.36
2018-06-20T08:04:21.145Z,977.33
2018-06-20T08:05:21.152Z,977.33
2018-06-20T08:06:21.228Z,977.32
2018-06-20T08:07:21.162Z,977.33
2018-06-20T08:08:21.154Z,977.35
2018-06-20T08:09:21.162Z,977.36
2018-06-20T08:10:21.171Z,977.32
2018-06-20T08:11:21.160Z,977.32
2018-06-20T08:12:21.202Z,977.38
2018-06-20T08:13:21.161Z,977.38
2018-06-20T08:14:21.169Z,977.38
2018-06-20T08:15:21.177Z,977.36
2018-06-20T08:16:21.169Z,977.35
2018-06-20T08:17:21.172Z,977.37
2018-06-20T08:18:21.173Z,977.34
2018-06-20T08:19:21.186Z,977.25
2018-06-20T08:20:21.180Z,977.25
2018-06-20T08:21:21.186Z,977.27
2018-06-20T08:22:21.182Z,977.25
2018-06-20T08:23:21.191Z,977.29
2018-06-20T08:24:21.189Z,977.21
2018-06-20T08:25:21.192Z,977.24
2018-06-20T08:26:21.196Z,977.24
2018-06-20T08:27:21.199Z,977.27
2018-06-20T08:28:21.197Z,977.25
2018-06-20T08:29:21.202Z,977.26
2018-06-20T08:30:21.208Z,977.29
2018-06-20T08:31:21.209Z,977.25
2018-06-20T08:32:21.211Z,977.25
2018-06-20T08:33:21.212Z,977.22
2018-06-20T08:34:21.225Z,977.22
2018-06-20T08:35:21.222Z,977.22
2018-06-20T08:36:21.226Z,977.23
2018-06-20T08:37:21.229Z,977.21
2018-06-20T08:38:21.237Z,977.21
2018-06-20T08:39:21.234Z,977.20
2018-06-20T08:40:21.236Z,977.20
2018-06-20T08:41:21.235Z,977.19
2018-06-20T08:42:21.270Z,977.20
2018-06-20T08:43:21.251Z,977.19
2018-06-20T08:44:21.246Z,977.20
2018-06-20T08:45:21.253Z,977.16
2018-06-20T08:46:21.254Z,977.21
2018-06-20T08:47:21.256Z,977.20
2018-06-20T08:48:21.270Z,977.18
2018-06-20T08:49:21.263Z,977.19
2018-06-20T08:50:21.277Z,977.16
2018-06-20T08:51:21.290Z,977.16
2018-06-20T08:52:21.278Z,977.16
2018-06-20T08:53:21.278Z,977.14
2018-06-20T08:54:21.277Z,977.15
2018-06-20T08:55:21.280Z,977.15
2018-06-20T08:56:21.296Z,977.14
2018-06-20T08:57:21.292Z,977.14
2018-06-20T08:58:21.305Z,977.12
2018-06-20T08:59:21.299Z,977.09
2018-06-20T09:00:21.304Z,977.10
2018-06-20T09:01:21.300Z,977.07
2018-06-20T09:02:21.309Z,977.15
2018-06-20T09:03:21.322Z,977.19
2018-06-20T09:04:21.312Z,977.15
2018-06-20T09:05:21.322Z,977.12
2018-06-20T09:06:21.316Z,977.10
2018-06-20T09:07:21.321Z,977.07
2018-06-20T09:08:21.323Z,977.09
2018-06-20T09:09:21.326Z,977.09
2018-06-20T09:10:21.330Z,977.04
2018-06-20T09:11:21.339Z,977.04
2018-06-20T09:12:21.337Z,977.03
2018-06-20T09:13:21.340Z,977.03
2018-06-20T09:14:21.425Z,977.01
2018-06-20T09:15:21.349Z,977.07
2018-06-20T09:16:21.349Z,977.03
2018-06-20T09:17:21.365Z,977.12
2018-06-20T09:18:21.357Z,977.12
2018-06-20T09:19:21.362Z,977.07
2018-06-20T09:20:21.384Z,977.05
2018-06-20T09:21:21.370Z,977.07
2018-06-20T09:22:21.400Z,977.03
2018-06-20T09:23:21.377Z,977.04
2018-06-20T09:24:21.389Z,977.03
2018-06-20T09:25:21.394Z,976.99
2018-06-20T09:26:21.387Z,977.03
2018-06-20T09:27:21.392Z,977.04
2018-06-20T09:28:21.395Z,977.04
2018-06-20T09:29:21.405Z,977.02
2018-06-20T09:30:21.402Z,976.99
2018-06-20T09:31:21.420Z,976.98
2018-06-20T09:32:21.409Z,977.00
2018-06-20T09:33:21.413Z,977.01
2018-06-20T09:34:21.439Z,976.96
2018-06-20T09:35:21.421Z,977.00
2018-06-20T09:36:21.429Z,977.06
2018-06-20T09:37:21.440Z,977.04
2018-06-20T09:38:21.458Z,977.03
2018-06-20T09:39:21.437Z,976.98
2018-06-20T09:40:21.444Z,976.98
2018-06-20T09:41:21.451Z,976.98
2018-06-20T09:42:21.455Z,977.01
2018-06-20T09:43:21.449Z,976.96
2018-06-20T09:44:21.462Z,977.01
2018-06-20T09:45:21.460Z,976.98
2018-06-20T09:46:21.460Z,976.97
2018-06-20T09:47:21.473Z,977.02
2018-06-20T09:48:21.466Z,977.04
2018-06-20T09:49:21.472Z,976.98
2018-06-20T09:50:21.472Z,977.01
2018-06-20T09:51:21.481Z,977.01
2018-06-20T09:52:21.478Z,977.04
2018-06-20T09:53:21.491Z,977.06
2018-06-20T09:54:21.531Z,977.07
2018-06-20T09:55:21.491Z,977.04
2018-06-20T09:56:21.510Z,977.00
2018-06-20T09:57:21.505Z,977.01
2018-06-20T09:58:21.506Z,977.00
2018-06-20T09:59:21.506Z,976.94
2018-06-20T10:00:21.513Z,976.99
2018-06-20T10:01:21.517Z,976.99
2018-06-20T10:02:21.517Z,976.94
2018-06-20T10:03:21.521Z,976.96
2018-06-20T10:04:21.523Z,976.96
2018-06-20T10:05:21.526Z,976.94
2018-06-20T10:06:21.595Z,976.96
2018-06-20T10:07:21.542Z,976.95
2018-06-20T10:08:21.535Z,976.92
2018-06-20T10:09:21.543Z,976.93
2018-06-20T10:10:21.544Z,976.88
2018-06-20T10:11:21.572Z,976.94
2018-06-20T10:12:21.556Z,976.90
2018-06-20T10:13:21.560Z,976.93
2018-06-20T10:14:21.566Z,976.93
2018-06-20T10:15:21.570Z,976.94
2018-06-20T10:16:21.570Z,976.92
2018-06-20T10:17:21.582Z,976.89
2018-06-20T10:18:21.576Z,976.88
2018-06-20T10:19:21.584Z,976.90
2018-06-20T10:20:21.600Z,976.90
2018-06-20T10:21:21.596Z,976.91
2018-06-20T10:22:21.591Z,976.87
2018-06-20T10:23:21.610Z,976.85
2018-06-20T10:24:21.607Z,976.90
2018-06-20T10:25:21.603Z,976.84
2018-06-20T10:26:21.607Z,976.81
2018-06-20T10:27:21.625Z,976.81
2018-06-20T10:28:21.616Z,976.79
2018-06-20T10:29:21.620Z,976.82
2018-06-20T10:30:21.628Z,976.80
2018-06-20T10:31:21.631Z,976.82
2018-06-20T10:32:21.637Z,976.84
2018-06-20T10:33:21.643Z,976.81
2018-06-20T10:34:21.642Z,976.81
2018-06-20T10:35:21.652Z,976.80
2018-06-20T10:36:21.650Z,976.77
2018-06-20T10:37:21.655Z,976.78
2018-06-20T10:38:21.657Z,976.75
2018-06-20T10:39:21.670Z,976.76
2018-06-20T10:40:21.668Z,976.79
2018-06-20T10:41:21.669Z,976.75
2018-06-20T10:42:21.675Z,976.75
2018-06-20T10:43:21.687Z,976.80
2018-06-20T10:44:21.690Z,976.75
2018-06-20T10:45:21.687Z,976.83
2018-06-20T10:46:21.781Z,976.78
2018-06-20T10:47:21.698Z,976.74
2018-06-20T10:48:21.702Z,976.70
2018-06-20T10:49:21.707Z,976.67
2018-06-20T10:50:21.710Z,976.64
2018-06-20T10:51:21.722Z,976.67
2018-06-20T10:52:21.716Z,976.70
2018-06-20T10:53:21.736Z,976.73
2018-06-20T10:54:21.750Z,976.78
2018-06-20T10:55:21.736Z,976.66
2018-06-20T10:56:21.741Z,976.69
2018-06-20T10:57:21.737Z,976.70
2018-06-20T10:58:21.745Z,976.72
2018-06-20T10:59:21.750Z,976.69
2018-06-20T11:00:21.751Z,976.67
2018-06-20T11:01:21.757Z,976.63
2018-06-20T11:02:21.757Z,976.63
2018-06-20T11:03:21.779Z,976.60
2018-06-20T11:04:21.765Z,976.60
2018-06-20T11:05:21.771Z,976.56
2018-06-20T11:06:21.784Z,976.57
2018-06-20T11:07:21.786Z,976.56
2018-06-20T11:08:21.790Z,976.60
2018-06-20T11:09:21.795Z,976.57
2018-06-20T11:10:21.792Z,976.61
2018-06-20T11:11:21.805Z,976.60
2018-06-20T11:12:21.802Z,976.55
2018-06-20T11:13:21.810Z,976.54
2018-06-20T11:14:21.810Z,976.63
2018-06-20T11:15:21.878Z,976.58
2018-06-20T11:16:21.824Z,976.58
2018-06-20T11:17:21.828Z,976.70
2018-06-20T11:18:21.827Z,976.60
2018-06-20T11:19:21.833Z,976.55
2018-06-20T11:20:21.837Z,976.57
2018-06-20T11:21:21.843Z,976.51
2018-06-20T11:22:21.847Z,976.53
2018-06-20T11:23:21.883Z,976.46
2018-06-20T11:24:21.856Z,976.51
2018-06-20T11:25:21.874Z,976.53
2018-06-20T11:26:21.866Z,976.52
2018-06-20T11:27:21.871Z,976.46
2018-06-20T11:28:21.876Z,976.42
2018-06-20T11:29:21.932Z,976.47
2018-06-20T11:30:21.885Z,976.45
2018-06-20T11:31:21.898Z,976.40
2018-06-20T11:32:21.895Z,976.37
2018-06-20T11:33:21.901Z,976.36
2018-06-20T11:34:21.904Z,976.36
2018-06-20T11:35:21.909Z,976.36
2018-06-20T11:36:21.917Z,976.40
2018-06-20T11:37:21.918Z,976.40
2018-06-20T11:38:21.932Z,976.41
2018-06-20T11:39:21.942Z,976.36
2018-06-20T11:40:21.948Z,976.37
2018-06-20T11:41:21.939Z,976.34
2018-06-20T11:42:21.944Z,976.39
2018-06-20T11:43:21.947Z,976.37
2018-06-20T11:44:21.953Z,976.30
2018-06-20T11:45:21.958Z,976.31
2018-06-20T11:46:21.970Z,976.29
2018-06-20T11:47:21.976Z,976.30
2018-06-20T11:48:21.972Z,976.31
2018-06-20T11:49:21.988Z,976.31
2018-06-20T11:50:21.982Z,976.31
2018-06-20T11:51:21.989Z,976.29
2018-06-20T11:52:22.002Z,976.29
2018-06-20T11:53:21.997Z,976.26
2018-06-20T11:54:22.002Z,976.24
2018-06-20T11:55:22.008Z,976.23
2018-06-20T11:56:22.019Z,976.24
2018-06-20T11:57:22.023Z,976.27
2018-06-20T11:58:22.027Z,976.23
2018-06-20T11:59:22.033Z,976.21
2018-06-20T12:00:22.037Z,976.19
2018-06-20T12:01:22.037Z,976.20
2018-06-20T12:02:22.053Z,976.19
2018-06-20T12:03:22.050Z,976.20
2018-06-20T12:04:22.052Z,976.18
2018-06-20T12:05:22.064Z,976.16
2018-06-20T12:06:22.063Z,976.13
2018-06-20T12:07:22.072Z,976.10
2018-06-20T12:08:22.082Z,976.14
2018-06-20T12:09:22.082Z,976.08
2018-06-20T12:10:22.093Z,976.12
2018-06-20T12:11:22.100Z,976.10
2018-06-20T12:12:22.094Z,976.07
2018-06-20T12:13:22.101Z,976.05
2018-06-20T12:14:22.114Z,976.04
2018-06-20T12:15:22.110Z,975.99
2018-06-20T12:16:22.124Z,975.97
2018-06-20T12:17:22.122Z,975.98
2018-06-20T12:18:22.131Z,975.96
2018-06-20T12:19:22.129Z,975.89
2018-06-20T12:20:22.135Z,975.89
2018-06-20T12:21:22.145Z,975.91
2018-06-20T12:22:22.151Z,975.88
2018-06-20T12:23:22.160Z,975.93
2018-06-20T12:24:22.165Z,975.95
2018-06-20T12:25:22.169Z,975.83
2018-06-20T12:26:22.180Z,975.89
2018-06-20T12:27:22.185Z,975.84
2018-06-20T12:28:22.198Z,975.85